CMA CGM Castilla — V7LZ7 — position and weather

sailwx.info

Track history (hours):
 
Tides and Currents Weather Stations Pressure Air Temp Water Temp Dewpoint Dewpoint Depression Visibility Wind Speed Wind Dir Waves Ship Positions

CMA CGM Castilla

Last reported at 2014-Dec-21 08:33 UTC. Time now 2014-Dec-22 17:47 UTC.
Position N 41°15' E 029°10'.

Length 194 m; beam 28.2 m; draft 11.5 m.

Type: Ship. MMSI: 538090285.

Date/timePositionNaut miles runAvg speedWind from/ knotsBaromVisibWave heightAir tempDewpointWater temp
2014-Dec-21 08:33N 41°15' E 029°10'30 2.3
2014-Dec-20 19:33N 40°48' E 028°53'1 0.6
2014-Dec-20 18:33N 40°49' E 028°54'1 1.4
2014-Dec-20 17:31N 40°49' E 028°52'14314.0
2014-Dec-20 07:17N 39°55' E 025°57'120 7.0
2014-Dec-19 14:13N 37°55' E 025°48'4 5.4
2014-Dec-19 13:33N 37°51' E 025°48'1111.4
2014-Dec-19 12:33N 37°40' E 025°51'1010.5
2014-Dec-19 11:33N 37°30' E 025°53'1312.5
2014-Dec-19 10:33N 37°21' E 026°04'1515.0
2014-Dec-19 09:33N 37°12' E 026°19'1614.8
2014-Dec-19 08:30N 37°02' E 026°35'1614.5
2014-Dec-19 07:25N 36°48' E 026°43'1314.3
2014-Dec-19 06:32N 36°36' E 026°48'  
2014-Dec-14 06:07N 36°26' E 026°56'4316.2
2014-Dec-14 03:28N 37°04' E 026°32'1516.2
2014-Dec-14 02:33N 37°13' E 026°17'1615.9
2014-Dec-14 01:33N 37°23' E 026°02'1915.0
2014-Dec-14 00:17N 37°40' E 025°51'263 9.7
2014-Dec-12 21:12N 41°14' E 029°08'5 8.1
2014-Dec-12 20:33N 41°19' E 029°07'10 0.4
2014-Dec-11 21:05N 41°24' E 028°57'0 0.1
2014-Dec-11 20:28N 41°24' E 028°57'1 0.4
2014-Dec-11 18:17N 41°24' E 028°58'1 0.8
2014-Dec-11 17:33N 41°25' E 028°58'17 4.1
2014-Dec-11 13:22N 41°28' E 029°21'1114.2
2014-Dec-11 12:34N 41°31' E 029°36'  
Track history (hours):
 
Tides and Currents Weather Stations Pressure Air Temp Water Temp Dewpoint Dewpoint Depression Visibility Wind Speed Wind Dir Waves Ship Positions

CMA CGM Castilla

Last reported at 2014-Dec-21 08:33 UTC. Time now 2014-Dec-22 17:47 UTC.
Position N 41°15' E 029°10'.

Length 194 m; beam 28.2 m; draft 11.5 m.

Type: Ship. MMSI: 538090285.

Date/timePositionNaut miles runAvg speedWind from/ knotsBaromVisibWave heightAir tempDewpointWater temp
2014-Dec-21 08:33N 41°15' E 029°10'30 2.3
2014-Dec-20 19:33N 40°48' E 028°53'1 0.6
2014-Dec-20 18:33N 40°49' E 028°54'1 1.4
2014-Dec-20 17:31N 40°49' E 028°52'14314.0
2014-Dec-20 07:17N 39°55' E 025°57'120 7.0
2014-Dec-19 14:13N 37°55' E 025°48'4 5.4
2014-Dec-19 13:33N 37°51' E 025°48'1111.4
2014-Dec-19 12:33N 37°40' E 025°51'1010.5
2014-Dec-19 11:33N 37°30' E 025°53'1312.5
2014-Dec-19 10:33N 37°21' E 026°04'1515.0
2014-Dec-19 09:33N 37°12' E 026°19'1614.8
2014-Dec-19 08:30N 37°02' E 026°35'1614.5
2014-Dec-19 07:25N 36°48' E 026°43'1314.3
2014-Dec-19 06:32N 36°36' E 026°48'  
2014-Dec-14 06:07N 36°26' E 026°56'4316.2
2014-Dec-14 03:28N 37°04' E 026°32'1516.2
2014-Dec-14 02:33N 37°13' E 026°17'1615.9
2014-Dec-14 01:33N 37°23' E 026°02'1915.0
2014-Dec-14 00:17N 37°40' E 025°51'263 9.7
2014-Dec-12 21:12N 41°14' E 029°08'5 8.1
2014-Dec-12 20:33N 41°19' E 029°07'10 0.4
2014-Dec-11 21:05N 41°24' E 028°57'0 0.1
2014-Dec-11 20:28N 41°24' E 028°57'1 0.4
2014-Dec-11 18:17N 41°24' E 028°58'1 0.8
2014-Dec-11 17:33N 41°25' E 028°58'17 4.1
2014-Dec-11 13:22N 41°28' E 029°21'1114.2
2014-Dec-11 12:34N 41°31' E 029°36'  

Dump ship's entire track history